createdAt,value
2023-03-01T00:09:33.800Z,199.60
2023-03-01T00:12:01.632Z,159.40
2023-03-01T00:14:29.490Z,171.40
2023-03-01T00:16:57.473Z,199.80
2023-03-01T00:19:25.817Z,143.60
2023-03-01T00:21:53.720Z,142.80
2023-03-01T00:24:21.655Z,126.20
2023-03-01T00:26:49.688Z,99.80
2023-03-01T00:29:17.582Z,97.30
2023-03-01T00:31:45.420Z,81.90
2023-03-01T00:34:13.323Z,90.20
2023-03-01T00:36:41.397Z,85.30
2023-03-01T00:39:14.531Z,77.90
2023-03-01T00:41:43.625Z,76.80
2023-03-01T00:44:11.993Z,79.30
2023-03-01T00:46:40.144Z,67.00
2023-03-01T00:49:08.247Z,70.20
2023-03-01T00:51:36.425Z,74.40
2023-03-01T00:54:04.398Z,88.50
2023-03-01T00:56:33.313Z,115.40
2023-03-01T00:59:02.546Z,169.60
2023-03-01T01:01:32.012Z,149.20
2023-03-01T01:04:08.803Z,151.50
2023-03-01T01:06:44.189Z,138.10
2023-03-01T01:09:18.067Z,125.50
2023-03-01T01:11:49.480Z,138.70
2023-03-01T01:14:18.662Z,133.70
2023-03-01T01:16:46.930Z,118.30
2023-03-01T01:19:15.347Z,115.40
2023-03-01T01:21:46.418Z,110.80
2023-03-01T01:24:15.324Z,106.20
2023-03-01T01:26:43.766Z,105.10
2023-03-01T01:29:12.586Z,113.30
2023-03-01T01:31:42.116Z,110.90
2023-03-01T01:34:16.523Z,105.30
2023-03-01T01:36:45.152Z,106.40
2023-03-01T01:39:14.268Z,100.00
2023-03-01T01:41:43.398Z,97.90
2023-03-01T01:44:22.016Z,92.70
2023-03-01T01:46:59.155Z,105.30
2023-03-01T01:49:47.240Z,99.10
2023-03-01T01:52:19.000Z,93.30
2023-03-01T01:54:59.015Z,92.40
2023-03-01T01:57:30.920Z,86.60
2023-03-01T02:00:01.914Z,89.50
2023-03-01T02:02:30.113Z,83.40
2023-03-01T02:05:12.163Z,82.90
2023-03-01T02:07:42.339Z,87.80
2023-03-01T02:10:10.788Z,82.30
2023-03-01T02:12:40.956Z,81.00
2023-03-01T02:15:09.613Z,83.00
2023-03-01T02:17:38.994Z,82.40
2023-03-01T02:20:27.718Z,80.40
2023-03-01T02:22:56.202Z,77.00
2023-03-01T02:25:40.198Z,75.60
2023-03-01T02:28:16.990Z,71.50
2023-03-01T02:31:07.667Z,73.40
2023-03-01T02:33:38.849Z,72.20
2023-03-01T02:36:15.065Z,74.20
2023-03-01T02:38:43.471Z,74.70
2023-03-01T02:41:14.531Z,72.10
2023-03-01T02:43:42.875Z,71.60
2023-03-01T02:46:20.201Z,71.60
2023-03-01T02:48:54.531Z,74.40
2023-03-01T02:51:44.741Z,70.20
2023-03-01T02:54:34.813Z,74.50
2023-03-01T02:57:03.745Z,75.30
2023-03-01T02:59:40.440Z,78.30
2023-03-01T03:02:39.517Z,71.90
2023-03-01T03:05:25.256Z,70.10
2023-03-01T03:07:56.399Z,73.10
2023-03-01T03:10:31.171Z,74.00
2023-03-01T03:13:05.283Z,71.70
2023-03-01T03:18:09.560Z,74.70
2023-03-01T03:20:38.858Z,82.40
2023-03-01T03:23:07.231Z,79.30
2023-03-01T03:25:38.815Z,89.20
2023-03-01T03:28:11.175Z,94.90
2023-03-01T03:30:41.281Z,89.70
2023-03-01T03:33:13.495Z,95.90
2023-03-01T03:35:44.952Z,103.40
2023-03-01T03:38:17.845Z,99.30
2023-03-01T03:40:48.721Z,103.10
2023-03-01T03:43:22.701Z,104.80
2023-03-01T03:45:52.182Z,101.60
2023-03-01T03:48:21.210Z,98.60
2023-03-01T03:50:52.699Z,93.90
2023-03-01T03:53:22.602Z,88.90
2023-03-01T03:55:52.547Z,87.40
2023-03-01T03:58:24.008Z,94.80
2023-03-01T04:00:57.383Z,89.20
2023-03-01T04:03:27.155Z,95.70
2023-03-01T04:05:55.121Z,91.70
2023-03-01T04:08:24.044Z,91.00
2023-03-01T04:10:57.360Z,82.20
2023-03-01T04:13:26.391Z,84.30
2023-03-01T04:15:55.722Z,91.00
2023-03-01T04:18:26.303Z,87.90
2023-03-01T04:20:56.402Z,89.70
2023-03-01T04:23:25.000Z,97.70
2023-03-01T04:25:58.563Z,99.70
2023-03-01T04:31:14.734Z,104.30
2023-03-01T04:33:55.379Z,104.70
2023-03-01T04:36:25.939Z,108.10
2023-03-01T04:38:55.061Z,103.70
2023-03-01T04:41:24.922Z,98.90
2023-03-01T04:43:53.090Z,102.90
2023-03-01T04:46:22.096Z,99.60
2023-03-01T04:48:50.212Z,98.40
2023-03-01T04:51:19.386Z,95.10
2023-03-01T04:53:47.775Z,82.70
2023-03-01T04:56:17.037Z,83.30
2023-03-01T04:58:45.843Z,78.90
2023-03-01T05:01:20.747Z,77.30
2023-03-01T05:03:51.482Z,73.20
2023-03-01T05:06:21.654Z,72.10
2023-03-01T05:08:50.071Z,70.20
2023-03-01T05:11:18.016Z,62.60
2023-03-01T05:13:45.864Z,61.50
2023-03-01T05:16:13.920Z,59.10
2023-03-01T05:18:42.054Z,57.70
2023-03-01T05:21:18.504Z,58.30
2023-03-01T05:23:47.922Z,57.20
2023-03-01T05:26:33.924Z,66.30
2023-03-01T05:29:02.152Z,59.80
2023-03-01T05:31:31.873Z,54.80
2023-03-01T05:33:59.942Z,65.90
2023-03-01T05:36:27.933Z,62.90
2023-03-01T05:38:56.801Z,63.50
2023-03-01T05:41:24.953Z,68.00
2023-03-01T05:43:52.854Z,63.50
2023-03-01T05:46:20.769Z,63.50
2023-03-01T05:48:49.404Z,68.40
2023-03-01T05:51:18.622Z,72.60
2023-03-01T05:53:46.650Z,72.70
2023-03-01T05:56:14.567Z,68.30
2023-03-01T05:58:42.424Z,72.40
2023-03-01T06:01:14.594Z,74.20
2023-03-01T06:03:43.265Z,69.90
2023-03-01T06:06:11.182Z,76.40
2023-03-01T06:08:39.108Z,74.80
2023-03-01T06:11:08.322Z,72.20
2023-03-01T06:13:36.432Z,72.00
2023-03-01T06:16:08.096Z,83.30
2023-03-01T06:18:36.728Z,72.20
2023-03-01T06:21:05.843Z,79.20
2023-03-01T06:23:34.117Z,71.80
2023-03-01T06:26:07.155Z,80.80
2023-03-01T06:28:35.775Z,88.50
2023-03-01T06:31:04.410Z,114.30
2023-03-01T06:33:32.595Z,108.50
2023-03-01T06:36:00.720Z,118.90
2023-03-01T06:38:29.202Z,116.60
2023-03-01T06:40:57.715Z,117.10
2023-03-01T06:43:25.839Z,131.60
2023-03-01T06:45:53.744Z,87.20
2023-03-01T06:48:21.757Z,112.80
2023-03-01T06:50:49.624Z,95.70
2023-03-01T06:53:17.664Z,99.90
2023-03-01T06:55:45.521Z,97.00
2023-03-01T06:58:13.428Z,76.70
2023-03-01T07:00:42.001Z,79.00
2023-03-01T07:03:10.211Z,85.30
2023-03-01T07:05:38.838Z,84.90
2023-03-01T07:08:06.926Z,90.40
2023-03-01T07:10:34.805Z,109.00
2023-03-01T07:13:02.748Z,112.60
2023-03-01T07:15:30.704Z,119.40
2023-03-01T07:17:58.621Z,100.50
2023-03-01T07:20:26.803Z,85.00
2023-03-01T07:22:59.371Z,89.10
2023-03-01T07:25:27.366Z,86.70
2023-03-01T07:27:55.407Z,87.80
2023-03-01T07:30:27.033Z,88.20
2023-03-01T07:32:56.768Z,88.40
2023-03-01T07:35:27.223Z,69.60
2023-03-01T07:37:55.313Z,96.70
2023-03-01T07:40:23.244Z,76.20
2023-03-01T07:42:56.623Z,74.40
2023-03-01T07:45:27.592Z,66.00
2023-03-01T07:47:56.705Z,70.20
2023-03-01T07:50:24.874Z,64.00
2023-03-01T07:52:52.787Z,71.50
2023-03-01T07:55:21.262Z,64.70
2023-03-01T07:57:49.133Z,71.60
2023-03-01T08:00:17.627Z,71.20
2023-03-01T08:02:46.425Z,61.00
2023-03-01T08:05:14.685Z,71.30
2023-03-01T08:07:42.789Z,71.80
2023-03-01T08:10:11.778Z,65.40
2023-03-01T08:12:39.843Z,63.50
2023-03-01T08:15:08.735Z,61.60
2023-03-01T08:17:36.956Z,60.50
2023-03-01T08:20:07.907Z,81.70
2023-03-01T08:22:35.827Z,81.70
2023-03-01T08:25:04.471Z,79.70
2023-03-01T08:27:32.423Z,64.00
2023-03-01T08:30:00.337Z,77.00
2023-03-01T08:32:28.282Z,74.50
2023-03-01T08:34:56.376Z,66.20
2023-03-01T08:37:24.348Z,57.50
2023-03-01T08:39:52.332Z,56.60
2023-03-01T08:42:20.198Z,47.40
2023-03-01T08:44:48.138Z,38.80
2023-03-01T08:47:16.027Z,45.30
2023-03-01T08:49:43.856Z,49.60
2023-03-01T08:52:11.724Z,57.40
2023-03-01T08:54:39.601Z,54.30
2023-03-01T08:57:07.496Z,49.00
2023-03-01T08:59:38.377Z,57.20
2023-03-01T09:02:11.696Z,47.90
2023-03-01T09:04:40.128Z,43.90
2023-03-01T09:07:09.805Z,38.30
2023-03-01T09:09:38.805Z,38.10
2023-03-01T09:12:07.265Z,34.70
2023-03-01T09:14:35.316Z,59.30
2023-03-01T09:17:04.193Z,38.00
2023-03-01T09:19:32.179Z,37.40
2023-03-01T09:22:00.116Z,26.20
2023-03-01T09:24:28.033Z,31.60
2023-03-01T09:26:56.948Z,37.80
2023-03-01T09:29:25.330Z,38.70
2023-03-01T09:31:56.280Z,34.40
2023-03-01T09:34:24.887Z,26.70
2023-03-01T09:36:53.048Z,28.10
2023-03-01T09:39:21.782Z,24.30
2023-03-01T09:42:03.478Z,26.20
2023-03-01T09:44:32.337Z,33.50
2023-03-01T09:47:01.328Z,42.60
2023-03-01T09:49:31.716Z,44.50
2023-03-01T09:52:22.233Z,39.00
2023-03-01T09:54:55.702Z,32.70
2023-03-01T09:57:31.823Z,26.90
2023-03-01T10:00:11.840Z,24.00
2023-03-01T10:02:51.128Z,28.50
2023-03-01T10:05:34.169Z,45.50
2023-03-01T10:08:30.493Z,29.80
2023-03-01T10:10:59.777Z,31.40
2023-03-01T10:13:43.665Z,29.50
2023-03-01T10:16:17.918Z,39.00
2023-03-01T10:18:49.001Z,38.00
2023-03-01T10:21:20.212Z,40.10
2023-03-01T10:23:52.738Z,39.50
2023-03-01T10:26:53.017Z,39.80
2023-03-01T10:29:27.307Z,40.20
2023-03-01T10:31:55.672Z,41.00
2023-03-01T10:34:33.006Z,42.20
2023-03-01T10:37:19.271Z,42.60
2023-03-01T10:40:09.157Z,38.80
2023-03-01T10:42:50.250Z,35.60
2023-03-01T10:45:22.105Z,44.40
2023-03-01T10:48:30.030Z,45.20
2023-03-01T10:51:01.172Z,44.60
2023-03-01T10:53:37.167Z,37.10
2023-03-01T10:56:05.209Z,39.20
2023-03-01T10:58:35.812Z,36.20
2023-03-01T11:01:24.733Z,41.50
2023-03-01T11:04:11.287Z,26.40
2023-03-01T11:06:42.123Z,32.00
2023-03-01T11:09:20.907Z,32.10
2023-03-01T11:12:01.033Z,38.50
2023-03-01T11:14:36.034Z,54.30
2023-03-01T11:17:26.726Z,38.10
2023-03-01T11:20:10.474Z,37.10
2023-03-01T11:22:46.636Z,31.30
2023-03-01T11:25:16.155Z,30.90
2023-03-01T11:27:46.696Z,31.40
2023-03-01T11:30:27.072Z,46.50
2023-03-01T11:33:29.232Z,55.30
2023-03-01T11:36:04.228Z,74.50
2023-03-01T11:38:36.404Z,43.60
2023-03-01T11:41:23.503Z,52.20
2023-03-01T11:43:59.856Z,27.70
2023-03-01T11:46:30.599Z,49.90
2023-03-01T11:49:36.360Z,32.10
2023-03-01T11:52:20.423Z,49.40
2023-03-01T11:58:02.851Z,31.30
2023-03-01T12:01:05.836Z,31.00
2023-03-01T12:03:59.985Z,28.40
2023-03-01T12:06:46.345Z,27.80
2023-03-01T12:10:00.269Z,26.10
2023-03-01T12:12:40.808Z,30.60
2023-03-01T12:15:33.074Z,34.70
2023-03-01T12:18:06.994Z,33.30
2023-03-01T12:20:52.607Z,29.10
2023-03-01T12:23:47.627Z,26.90
2023-03-01T12:26:57.095Z,30.60
2023-03-01T12:29:35.846Z,31.10
2023-03-01T12:32:12.645Z,34.40
2023-03-01T12:34:59.237Z,31.90
2023-03-01T12:37:43.957Z,31.30
2023-03-01T12:40:35.033Z,34.00
2023-03-01T12:43:23.761Z,37.40
2023-03-01T12:46:03.603Z,35.90
2023-03-01T12:48:51.924Z,38.50
2023-03-01T12:51:26.023Z,37.80
2023-03-01T12:53:57.309Z,36.60
2023-03-01T12:56:29.995Z,34.10
2023-03-01T12:59:18.460Z,34.30
2023-03-01T13:01:55.491Z,34.90
2023-03-01T13:04:37.586Z,34.50
2023-03-01T13:07:20.148Z,33.20
2023-03-01T13:10:42.096Z,35.60
2023-03-01T13:13:14.301Z,33.60
2023-03-01T13:15:42.350Z,32.60
2023-03-01T13:18:12.980Z,34.20
2023-03-01T13:20:44.045Z,35.70
2023-03-01T13:23:30.856Z,40.60
2023-03-01T13:26:04.778Z,50.60
2023-03-01T13:28:32.690Z,35.60
2023-03-01T13:31:02.550Z,35.10
2023-03-01T13:33:30.411Z,31.00
2023-03-01T13:35:59.520Z,31.00
2023-03-01T13:39:01.044Z,29.10
2023-03-01T13:41:44.101Z,32.00
2023-03-01T13:44:27.953Z,31.60
2023-03-01T13:47:18.391Z,33.50
2023-03-01T13:49:58.257Z,38.50
2023-03-01T13:52:38.958Z,33.70
2023-03-01T13:55:17.872Z,33.50
2023-03-01T13:57:54.670Z,35.00
2023-03-01T14:00:40.529Z,33.50
2023-03-01T14:03:17.402Z,32.60
2023-03-01T14:06:17.321Z,31.20
2023-03-01T14:08:50.390Z,33.20
2023-03-01T14:11:50.140Z,32.50
2023-03-01T14:14:27.089Z,31.60
2023-03-01T14:17:14.127Z,34.90
2023-03-01T14:19:46.275Z,32.20
2023-03-01T14:22:24.721Z,37.00
2023-03-01T14:24:56.567Z,35.70
2023-03-01T14:27:33.745Z,38.20
2023-03-01T14:30:05.388Z,33.50
2023-03-01T14:32:33.656Z,37.80
2023-03-01T14:35:01.920Z,33.10
2023-03-01T14:37:35.096Z,41.70
2023-03-01T14:40:05.434Z,42.50
2023-03-01T14:42:37.213Z,37.00
2023-03-01T14:45:08.139Z,42.70
2023-03-01T14:47:41.214Z,42.30
2023-03-01T14:52:48.358Z,46.10
2023-03-01T14:55:20.060Z,63.50
2023-03-01T14:57:50.491Z,46.20
2023-03-01T15:00:25.397Z,36.40
2023-03-01T15:02:55.028Z,31.10
2023-03-01T15:05:34.967Z,30.40
2023-03-01T15:08:05.644Z,50.80
2023-03-01T15:10:37.499Z,39.60
2023-03-01T15:13:25.433Z,35.00
2023-03-01T15:16:08.045Z,40.20
2023-03-01T15:18:37.660Z,33.80
2023-03-01T15:21:24.335Z,39.30
2023-03-01T15:24:28.655Z,41.40
2023-03-01T15:27:02.857Z,58.30
2023-03-01T15:29:34.408Z,44.40
2023-03-01T15:32:06.931Z,34.40
2023-03-01T15:34:38.690Z,35.70
2023-03-01T15:37:28.532Z,33.10
2023-03-01T15:39:58.691Z,34.20
2023-03-01T15:42:26.497Z,39.30
2023-03-01T15:45:13.336Z,39.80
2023-03-01T15:47:43.028Z,39.80
2023-03-01T15:50:21.760Z,38.40
2023-03-01T15:52:50.447Z,38.10
2023-03-01T15:55:26.148Z,44.40
2023-03-01T15:58:25.602Z,54.50
2023-03-01T16:01:01.080Z,97.60
2023-03-01T16:03:30.107Z,73.80
2023-03-01T16:05:58.166Z,50.90
2023-03-01T16:08:26.315Z,64.10
2023-03-01T16:10:55.610Z,99.40
2023-03-01T16:13:23.738Z,82.30
2023-03-01T16:15:52.506Z,110.00
2023-03-01T16:18:20.817Z,50.80
2023-03-01T16:20:49.342Z,42.90
2023-03-01T16:23:17.335Z,50.50
2023-03-01T16:25:45.269Z,63.80
2023-03-01T16:28:13.195Z,53.80
2023-03-01T16:30:41.545Z,43.20
2023-03-01T16:33:25.185Z,43.90
2023-03-01T16:35:56.288Z,42.40
2023-03-01T16:38:24.637Z,83.50
2023-03-01T16:40:53.046Z,102.80
2023-03-01T16:43:21.343Z,62.60
2023-03-01T16:45:49.295Z,57.00
2023-03-01T16:48:17.373Z,52.20
2023-03-01T16:50:45.486Z,56.80
2023-03-01T16:53:13.450Z,62.80
2023-03-01T16:55:46.449Z,91.30
2023-03-01T16:58:16.475Z,179.90
2023-03-01T17:00:44.496Z,154.20
2023-03-01T17:03:14.891Z,105.30
2023-03-01T17:05:43.147Z,98.50
2023-03-01T17:08:11.145Z,92.40
2023-03-01T17:10:39.275Z,113.70
2023-03-01T17:13:07.602Z,112.70
2023-03-01T17:15:36.142Z,127.20
2023-03-01T17:18:04.520Z,119.20
2023-03-01T17:20:32.460Z,117.90
2023-03-01T17:23:00.571Z,112.40
2023-03-01T17:25:29.362Z,104.50
2023-03-01T17:27:58.332Z,122.30
2023-03-01T17:30:26.551Z,130.70
2023-03-01T17:32:56.360Z,155.80
2023-03-01T17:35:24.576Z,183.60
2023-03-01T17:37:52.599Z,159.00
2023-03-01T17:40:20.650Z,186.90
2023-03-01T17:42:48.568Z,187.30
2023-03-01T17:45:16.680Z,162.30
2023-03-01T17:47:44.727Z,182.90
2023-03-01T17:50:12.680Z,188.10
2023-03-01T17:52:41.609Z,222.70
2023-03-01T17:55:10.630Z,253.20
2023-03-01T17:57:40.636Z,220.00
2023-03-01T18:00:16.173Z,218.50
2023-03-01T18:02:48.645Z,216.50
2023-03-01T18:05:17.453Z,228.60
2023-03-01T18:07:45.696Z,249.80
2023-03-01T18:10:14.621Z,253.90
2023-03-01T18:12:43.450Z,254.20
2023-03-01T18:15:12.608Z,224.80
2023-03-01T18:17:40.980Z,210.70
2023-03-01T18:20:10.606Z,216.40
2023-03-01T18:22:40.013Z,233.40
2023-03-01T18:25:09.242Z,237.90
2023-03-01T18:27:38.707Z,220.20
2023-03-01T18:30:08.958Z,223.10
2023-03-01T18:32:39.680Z,232.50
2023-03-01T18:35:08.468Z,279.00
2023-03-01T18:37:36.656Z,254.50
2023-03-01T18:40:08.845Z,313.50
2023-03-01T18:42:37.565Z,333.00
2023-03-01T18:45:06.791Z,328.30
2023-03-01T18:47:37.662Z,329.90
2023-03-01T18:50:08.976Z,285.70
2023-03-01T18:52:37.249Z,303.90
2023-03-01T18:55:06.595Z,280.20
2023-03-01T18:57:34.713Z,266.60
2023-03-01T19:00:04.740Z,253.40
2023-03-01T19:02:33.435Z,223.50
2023-03-01T19:05:01.556Z,203.90
2023-03-01T19:07:32.682Z,219.10
2023-03-01T19:10:00.909Z,237.00
2023-03-01T19:12:35.496Z,218.30
2023-03-01T19:15:05.390Z,221.30
2023-03-01T19:17:35.803Z,219.40
2023-03-01T19:20:05.233Z,212.20
2023-03-01T19:22:34.320Z,273.30
2023-03-01T19:25:03.923Z,292.90
2023-03-01T19:27:32.479Z,413.30
2023-03-01T19:30:03.503Z,365.10
2023-03-01T19:32:33.365Z,335.50
2023-03-01T19:35:01.905Z,258.80
2023-03-01T19:37:30.591Z,271.80
2023-03-01T19:40:01.325Z,274.40
2023-03-01T19:42:29.484Z,289.10
2023-03-01T19:44:57.851Z,266.70
2023-03-01T19:47:26.568Z,253.60
2023-03-01T19:49:54.595Z,255.80
2023-03-01T19:52:22.902Z,265.10
2023-03-01T19:54:53.790Z,241.10
2023-03-01T19:57:24.054Z,251.40
2023-03-01T19:59:52.540Z,237.50
2023-03-01T20:02:21.405Z,241.10
2023-03-01T20:04:50.320Z,242.10
2023-03-01T20:07:18.629Z,224.50
2023-03-01T20:09:46.643Z,252.50
2023-03-01T20:12:14.885Z,251.00
2023-03-01T20:14:55.410Z,296.50
2023-03-01T20:17:24.059Z,297.60
2023-03-01T20:19:52.195Z,331.30
2023-03-01T20:22:20.456Z,321.90
2023-03-01T20:24:48.913Z,317.90
2023-03-01T20:27:17.131Z,287.40
2023-03-01T20:29:46.057Z,269.20
2023-03-01T20:32:14.245Z,213.10
2023-03-01T20:34:44.665Z,194.90
2023-03-01T20:37:16.868Z,245.20
2023-03-01T20:39:45.744Z,390.40
2023-03-01T20:42:16.445Z,408.90
2023-03-01T20:44:45.892Z,305.20
2023-03-01T20:47:15.578Z,253.00
2023-03-01T20:49:43.694Z,276.50
2023-03-01T20:52:11.723Z,260.30
2023-03-01T20:54:40.888Z,223.10
2023-03-01T20:57:09.175Z,197.90
2023-03-01T20:59:37.985Z,216.30
2023-03-01T21:02:06.361Z,244.30
2023-03-01T21:04:37.084Z,241.70
2023-03-01T21:07:05.186Z,245.70
2023-03-01T21:09:34.920Z,233.70
2023-03-01T21:12:04.367Z,210.40
2023-03-01T21:14:42.403Z,197.60
2023-03-01T21:17:12.914Z,230.10
2023-03-01T21:19:45.413Z,254.40
2023-03-01T21:22:15.721Z,241.00
2023-03-01T21:24:45.304Z,238.60
2023-03-01T21:27:15.586Z,240.90
2023-03-01T21:29:46.057Z,251.90
2023-03-01T21:32:14.866Z,252.90
2023-03-01T21:34:45.528Z,255.50
2023-03-01T21:37:13.443Z,224.40
2023-03-01T21:39:41.739Z,232.90
2023-03-01T21:42:09.616Z,217.40
2023-03-01T21:44:37.864Z,190.30
2023-03-01T21:47:07.129Z,172.90
2023-03-01T21:49:38.375Z,155.50
2023-03-01T21:52:06.413Z,153.60
2023-03-01T21:54:35.071Z,145.70
2023-03-01T21:57:03.210Z,147.80
2023-03-01T21:59:31.330Z,141.90
2023-03-01T22:01:59.323Z,153.30
2023-03-01T22:04:27.339Z,150.30
2023-03-01T22:06:55.629Z,156.70
2023-03-01T22:09:24.589Z,157.10
2023-03-01T22:11:58.418Z,173.40
2023-03-01T22:14:26.524Z,154.90
2023-03-01T22:16:54.904Z,147.70
2023-03-01T22:19:23.386Z,145.30
2023-03-01T22:21:52.669Z,146.40
2023-03-01T22:24:24.856Z,136.70
2023-03-01T22:26:54.864Z,136.30
2023-03-01T22:29:26.225Z,133.80
2023-03-01T22:31:55.672Z,123.10
2023-03-01T22:34:24.619Z,126.20
2023-03-01T22:36:52.556Z,123.90
2023-03-01T22:39:21.705Z,134.90
2023-03-01T22:41:50.338Z,138.10
2023-03-01T22:44:22.210Z,142.30
2023-03-01T22:46:50.842Z,153.30
2023-03-01T22:49:20.068Z,144.10
2023-03-01T22:51:48.860Z,135.50
2023-03-01T22:54:18.712Z,139.00
2023-03-01T22:56:47.048Z,137.50
2023-03-01T22:59:18.994Z,136.20
2023-03-01T23:01:48.035Z,124.60
2023-03-01T23:04:17.677Z,119.90
2023-03-01T23:06:55.822Z,111.00
2023-03-01T23:09:32.885Z,116.00
2023-03-01T23:12:02.586Z,118.90
2023-03-01T23:14:32.245Z,117.10
2023-03-01T23:17:01.722Z,121.80
2023-03-01T23:19:30.710Z,117.30
2023-03-01T23:21:58.984Z,122.40
2023-03-01T23:24:31.375Z,151.80
2023-03-01T23:27:02.015Z,133.20
2023-03-01T23:29:31.227Z,161.30
2023-03-01T23:32:00.436Z,173.40
2023-03-01T23:34:28.470Z,162.90
2023-03-01T23:36:58.075Z,181.40
2023-03-01T23:39:26.397Z,183.10
2023-03-01T23:41:54.440Z,170.20
2023-03-01T23:44:22.972Z,146.40
2023-03-01T23:46:51.431Z,150.60
2023-03-01T23:49:22.133Z,138.20
2023-03-01T23:51:50.568Z,148.20
2023-03-01T23:54:22.272Z,144.60
2023-03-01T23:56:50.632Z,181.30
2023-03-01T23:59:23.362Z,160.40
